sensor_id;sensor_type;location;lat;lon;timestamp;P1;durP1;ratioP1;P2;durP2;ratioP2
31238;SDS011;17871;31.584;74.450;2023-03-30T00:01:18;65.38;;;33.92;;
31238;SDS011;17871;31.584;74.450;2023-03-30T00:03:48;59.08;;;30.77;;
31238;SDS011;17871;31.584;74.450;2023-03-30T00:06:17;51.42;;;30.38;;
31238;SDS011;17871;31.584;74.450;2023-03-30T00:08:50;55.28;;;32.10;;
31238;SDS011;17871;31.584;74.450;2023-03-30T00:11:25;51.45;;;31.13;;
31238;SDS011;17871;31.584;74.450;2023-03-30T00:13:54;59.40;;;32.20;;
31238;SDS011;17871;31.584;74.450;2023-03-30T00:16:23;55.95;;;35.17;;
31238;SDS011;17871;31.584;74.450;2023-03-30T00:18:52;73.20;;;39.42;;
31238;SDS011;17871;31.584;74.450;2023-03-30T00:21:21;80.85;;;40.65;;
31238;SDS011;17871;31.584;74.450;2023-03-30T00:23:51;73.70;;;37.50;;
31238;SDS011;17871;31.584;74.450;2023-03-30T00:26:19;79.82;;;38.45;;
31238;SDS011;17871;31.584;74.450;2023-03-30T00:28:49;80.95;;;42.47;;
31238;SDS011;17871;31.584;74.450;2023-03-30T00:31:18;70.65;;;39.38;;
31238;SDS011;17871;31.584;74.450;2023-03-30T00:33:48;73.47;;;40.20;;
31238;SDS011;17871;31.584;74.450;2023-03-30T00:36:18;65.82;;;37.40;;
31238;SDS011;17871;31.584;74.450;2023-03-30T00:38:47;70.43;;;41.00;;
31238;SDS011;17871;31.584;74.450;2023-03-30T00:41:16;79.38;;;45.00;;
31238;SDS011;17871;31.584;74.450;2023-03-30T00:43:55;91.90;;;47.70;;
31238;SDS011;17871;31.584;74.450;2023-03-30T00:46:27;86.53;;;45.60;;
31238;SDS011;17871;31.584;74.450;2023-03-30T00:48:59;69.60;;;42.65;;
31238;SDS011;17871;31.584;74.450;2023-03-30T00:51:34;81.00;;;45.80;;
31238;SDS011;17871;31.584;74.450;2023-03-30T00:54:10;85.47;;;44.65;;
31238;SDS011;17871;31.584;74.450;2023-03-30T00:56:44;78.10;;;42.35;;
31238;SDS011;17871;31.584;74.450;2023-03-30T00:59:13;74.97;;;42.10;;
31238;SDS011;17871;31.584;74.450;2023-03-30T01:01:42;77.90;;;42.70;;
31238;SDS011;17871;31.584;74.450;2023-03-30T01:04:17;73.90;;;39.90;;
31238;SDS011;17871;31.584;74.450;2023-03-30T01:06:47;67.78;;;38.20;;
31238;SDS011;17871;31.584;74.450;2023-03-30T01:09:19;71.18;;;40.72;;
31238;SDS011;17871;31.584;74.450;2023-03-30T01:11:49;57.15;;;37.10;;
31238;SDS011;17871;31.584;74.450;2023-03-30T01:14:19;70.80;;;42.65;;
31238;SDS011;17871;31.584;74.450;2023-03-30T01:16:54;78.43;;;45.40;;
31238;SDS011;17871;31.584;74.450;2023-03-30T01:20:01;91.28;;;55.30;;
31238;SDS011;17871;31.584;74.450;2023-03-30T01:36:56;101.22;;;59.78;;
31238;SDS011;17871;31.584;74.450;2023-03-30T01:42:47;109.65;;;57.92;;
31238;SDS011;17871;31.584;74.450;2023-03-30T01:48:17;106.50;;;58.72;;
31238;SDS011;17871;31.584;74.450;2023-03-30T01:51:19;103.97;;;58.50;;
31238;SDS011;17871;31.584;74.450;2023-03-30T01:53:55;101.80;;;57.28;;
31238;SDS011;17871;31.584;74.450;2023-03-30T01:56:40;111.50;;;58.67;;
31238;SDS011;17871;31.584;74.450;2023-03-30T01:59:24;112.03;;;57.92;;
31238;SDS011;17871;31.584;74.450;2023-03-30T02:02:15;117.38;;;58.70;;
31238;SDS011;17871;31.584;74.450;2023-03-30T02:04:46;114.32;;;60.75;;
31238;SDS011;17871;31.584;74.450;2023-03-30T02:07:16;108.35;;;58.90;;
31238;SDS011;17871;31.584;74.450;2023-03-30T02:09:51;114.97;;;59.67;;
31238;SDS011;17871;31.584;74.450;2023-03-30T02:14:52;110.35;;;54.65;;
31238;SDS011;17871;31.584;74.450;2023-03-30T02:17:27;102.78;;;55.30;;
31238;SDS011;17871;31.584;74.450;2023-03-30T02:19:58;105.50;;;54.97;;
31238;SDS011;17871;31.584;74.450;2023-03-30T02:22:27;120.75;;;55.78;;
31238;SDS011;17871;31.584;74.450;2023-03-30T02:24:58;98.03;;;51.83;;
31238;SDS011;17871;31.584;74.450;2023-03-30T02:27:27;90.72;;;50.47;;
31238;SDS011;17871;31.584;74.450;2023-03-30T02:29:56;92.28;;;50.45;;
31238;SDS011;17871;31.584;74.450;2023-03-30T02:32:27;88.45;;;47.50;;
31238;SDS011;17871;31.584;74.450;2023-03-30T02:35:16;69.40;;;43.50;;
31238;SDS011;17871;31.584;74.450;2023-03-30T02:46:28;63.33;;;37.53;;
31238;SDS011;17871;31.584;74.450;2023-03-30T02:49:23;72.50;;;37.67;;
31238;SDS011;17871;31.584;74.450;2023-03-30T02:52:15;69.00;;;37.10;;
31238;SDS011;17871;31.584;74.450;2023-03-30T02:55:12;74.93;;;36.13;;
31238;SDS011;17871;31.584;74.450;2023-03-30T02:58:16;51.28;;;34.10;;
31238;SDS011;17871;31.584;74.450;2023-03-30T03:01:13;51.92;;;33.22;;
31238;SDS011;17871;31.584;74.450;2023-03-30T03:06:38;63.42;;;34.45;;
31238;SDS011;17871;31.584;74.450;2023-03-30T03:09:08;61.83;;;32.30;;
31238;SDS011;17871;31.584;74.450;2023-03-30T03:11:37;58.35;;;30.65;;
31238;SDS011;17871;31.584;74.450;2023-03-30T03:14:06;50.13;;;29.42;;
31238;SDS011;17871;31.584;74.450;2023-03-30T03:16:36;72.72;;;30.58;;
31238;SDS011;17871;31.584;74.450;2023-03-30T03:19:16;47.78;;;27.33;;
31238;SDS011;17871;31.584;74.450;2023-03-30T03:21:47;51.38;;;26.70;;
31238;SDS011;17871;31.584;74.450;2023-03-30T03:24:17;53.47;;;27.73;;
31238;SDS011;17871;31.584;74.450;2023-03-30T03:27:03;55.88;;;28.92;;
31238;SDS011;17871;31.584;74.450;2023-03-30T03:29:49;52.33;;;27.67;;
31238;SDS011;17871;31.584;74.450;2023-03-30T03:32:18;50.38;;;26.38;;
31238;SDS011;17871;31.584;74.450;2023-03-30T03:34:48;55.53;;;29.58;;
31238;SDS011;17871;31.584;74.450;2023-03-30T03:37:18;54.70;;;29.63;;
31238;SDS011;17871;31.584;74.450;2023-03-30T03:39:47;54.45;;;30.25;;
31238;SDS011;17871;31.584;74.450;2023-03-30T03:42:16;49.83;;;28.48;;
31238;SDS011;17871;31.584;74.450;2023-03-30T03:47:30;45.13;;;26.05;;
31238;SDS011;17871;31.584;74.450;2023-03-30T03:49:59;56.75;;;27.05;;
31238;SDS011;17871;31.584;74.450;2023-03-30T03:52:31;51.08;;;25.25;;
31238;SDS011;17871;31.584;74.450;2023-03-30T03:55:00;38.95;;;24.05;;
31238;SDS011;17871;31.584;74.450;2023-03-30T03:57:31;46.67;;;25.15;;
31238;SDS011;17871;31.584;74.450;2023-03-30T04:00:00;63.80;;;23.60;;
31238;SDS011;17871;31.584;74.450;2023-03-30T04:02:37;41.58;;;23.48;;
31238;SDS011;17871;31.584;74.450;2023-03-30T04:05:07;44.22;;;25.17;;
31238;SDS011;17871;31.584;74.450;2023-03-30T04:07:36;45.97;;;24.65;;
31238;SDS011;17871;31.584;74.450;2023-03-30T04:10:06;56.25;;;27.10;;
31238;SDS011;17871;31.584;74.450;2023-03-30T04:12:55;50.15;;;25.42;;
31238;SDS011;17871;31.584;74.450;2023-03-30T04:15:54;52.10;;;24.17;;
31238;SDS011;17871;31.584;74.450;2023-03-30T04:18:26;39.28;;;24.35;;
31238;SDS011;17871;31.584;74.450;2023-03-30T04:21:06;44.45;;;23.70;;
31238;SDS011;17871;31.584;74.450;2023-03-30T04:23:59;48.28;;;24.50;;
31238;SDS011;17871;31.584;74.450;2023-03-30T04:26:47;45.08;;;22.48;;
31238;SDS011;17871;31.584;74.450;2023-03-30T04:29:25;37.42;;;19.50;;
31238;SDS011;17871;31.584;74.450;2023-03-30T04:32:12;31.63;;;16.95;;
31238;SDS011;17871;31.584;74.450;2023-03-30T04:35:07;29.20;;;15.57;;
31238;SDS011;17871;31.584;74.450;2023-03-30T04:37:58;30.73;;;14.15;;
31238;SDS011;17871;31.584;74.450;2023-03-30T04:40:48;23.42;;;12.30;;
31238;SDS011;17871;31.584;74.450;2023-03-30T04:43:37;22.20;;;12.32;;
31238;SDS011;17871;31.584;74.450;2023-03-30T04:46:25;26.70;;;13.35;;
31238;SDS011;17871;31.584;74.450;2023-03-30T04:49:07;36.30;;;12.85;;
31238;SDS011;17871;31.584;74.450;2023-03-30T04:52:08;41.22;;;15.35;;
31238;SDS011;17871;31.584;74.450;2023-03-30T04:54:55;21.52;;;12.60;;
31238;SDS011;17871;31.584;74.450;2023-03-30T04:58:02;24.23;;;11.60;;
31238;SDS011;17871;31.584;74.450;2023-03-30T05:00:50;23.70;;;12.23;;
31238;SDS011;17871;31.584;74.450;2023-03-30T05:03:38;22.15;;;11.15;;
31238;SDS011;17871;31.584;74.450;2023-03-30T05:06:26;31.65;;;11.90;;
31238;SDS011;17871;31.584;74.450;2023-03-30T05:09:23;17.58;;;9.52;;
31238;SDS011;17871;31.584;74.450;2023-03-30T05:12:24;37.42;;;10.68;;
31238;SDS011;17871;31.584;74.450;2023-03-30T05:15:11;19.40;;;10.52;;
31238;SDS011;17871;31.584;74.450;2023-03-30T05:17:59;18.33;;;10.80;;
31238;SDS011;17871;31.584;74.450;2023-03-30T05:20:45;26.27;;;11.23;;
31238;SDS011;17871;31.584;74.450;2023-03-30T05:23:24;26.05;;;10.25;;
31238;SDS011;17871;31.584;74.450;2023-03-30T05:26:13;16.55;;;8.93;;
31238;SDS011;17871;31.584;74.450;2023-03-30T05:29:03;27.92;;;11.85;;
31238;SDS011;17871;31.584;74.450;2023-03-30T05:31:55;21.40;;;10.07;;
31238;SDS011;17871;31.584;74.450;2023-03-30T05:34:43;31.67;;;11.07;;
31238;SDS011;17871;31.584;74.450;2023-03-30T05:37:21;20.88;;;10.98;;
31238;SDS011;17871;31.584;74.450;2023-03-30T05:40:12;18.08;;;6.65;;
31238;SDS011;17871;31.584;74.450;2023-03-30T05:43:01;17.48;;;7.32;;
31238;SDS011;17871;31.584;74.450;2023-03-30T05:45:51;18.02;;;8.40;;
31238;SDS011;17871;31.584;74.450;2023-03-30T05:48:38;12.52;;;7.20;;
31238;SDS011;17871;31.584;74.450;2023-03-30T05:51:23;20.92;;;8.25;;
31238;SDS011;17871;31.584;74.450;2023-03-30T05:54:11;19.75;;;6.03;;
31238;SDS011;17871;31.584;74.450;2023-03-30T05:56:44;23.08;;;8.05;;
31238;SDS011;17871;31.584;74.450;2023-03-30T05:59:23;21.95;;;7.03;;
31238;SDS011;17871;31.584;74.450;2023-03-30T06:02:21;19.83;;;7.45;;
31238;SDS011;17871;31.584;74.450;2023-03-30T06:04:56;25.10;;;7.90;;
31238;SDS011;17871;31.584;74.450;2023-03-30T06:07:29;24.73;;;9.15;;
31238;SDS011;17871;31.584;74.450;2023-03-30T06:09:59;15.43;;;6.90;;
31238;SDS011;17871;31.584;74.450;2023-03-30T06:12:29;14.95;;;5.57;;
31238;SDS011;17871;31.584;74.450;2023-03-30T06:14:58;22.67;;;7.60;;
31238;SDS011;17871;31.584;74.450;2023-03-30T06:17:39;11.60;;;7.35;;
31238;SDS011;17871;31.584;74.450;2023-03-30T06:20:08;20.42;;;7.13;;
31238;SDS011;17871;31.584;74.450;2023-03-30T06:22:43;15.30;;;7.82;;
31238;SDS011;17871;31.584;74.450;2023-03-30T06:25:19;18.83;;;8.43;;
31238;SDS011;17871;31.584;74.450;2023-03-30T06:27:49;22.50;;;8.25;;
31238;SDS011;17871;31.584;74.450;2023-03-30T06:30:19;21.23;;;9.82;;
31238;SDS011;17871;31.584;74.450;2023-03-30T06:32:52;34.60;;;9.32;;
31238;SDS011;17871;31.584;74.450;2023-03-30T06:35:33;33.10;;;10.37;;
31238;SDS011;17871;31.584;74.450;2023-03-30T06:38:03;20.77;;;8.90;;
31238;SDS011;17871;31.584;74.450;2023-03-30T06:40:32;23.35;;;8.52;;
31238;SDS011;17871;31.584;74.450;2023-03-30T06:43:02;24.95;;;9.15;;
31238;SDS011;17871;31.584;74.450;2023-03-30T06:45:33;18.08;;;8.85;;
31238;SDS011;17871;31.584;74.450;2023-03-30T06:48:03;29.85;;;10.43;;
31238;SDS011;17871;31.584;74.450;2023-03-30T06:50:37;17.05;;;8.90;;
31238;SDS011;17871;31.584;74.450;2023-03-30T06:53:23;26.05;;;9.30;;
31238;SDS011;17871;31.584;74.450;2023-03-30T06:55:56;21.20;;;11.23;;
31238;SDS011;17871;31.584;74.450;2023-03-30T06:58:28;26.65;;;10.02;;
31238;SDS011;17871;31.584;74.450;2023-03-30T07:00:58;22.23;;;10.75;;
31238;SDS011;17871;31.584;74.450;2023-03-30T07:03:57;25.60;;;12.25;;
31238;SDS011;17871;31.584;74.450;2023-03-30T07:06:46;21.77;;;11.25;;
31238;SDS011;17871;31.584;74.450;2023-03-30T07:09:16;22.60;;;11.10;;
31238;SDS011;17871;31.584;74.450;2023-03-30T07:11:45;20.20;;;12.63;;
31238;SDS011;17871;31.584;74.450;2023-03-30T07:14:14;31.20;;;12.60;;
31238;SDS011;17871;31.584;74.450;2023-03-30T07:16:44;31.27;;;12.57;;
31238;SDS011;17871;31.584;74.450;2023-03-30T07:19:15;19.60;;;11.23;;
31238;SDS011;17871;31.584;74.450;2023-03-30T07:21:44;32.35;;;12.75;;
31238;SDS011;17871;31.584;74.450;2023-03-30T07:24:16;21.52;;;11.43;;
31238;SDS011;17871;31.584;74.450;2023-03-30T07:26:45;26.48;;;11.15;;
31238;SDS011;17871;31.584;74.450;2023-03-30T07:29:14;19.45;;;11.15;;
31238;SDS011;17871;31.584;74.450;2023-03-30T07:31:48;21.70;;;10.40;;
31238;SDS011;17871;31.584;74.450;2023-03-30T07:34:19;18.90;;;8.57;;
31238;SDS011;17871;31.584;74.450;2023-03-30T07:36:52;20.40;;;9.00;;
31238;SDS011;17871;31.584;74.450;2023-03-30T07:39:26;16.77;;;8.73;;
31238;SDS011;17871;31.584;74.450;2023-03-30T07:42:01;23.55;;;9.32;;
31238;SDS011;17871;31.584;74.450;2023-03-30T07:44:31;12.38;;;6.97;;
31238;SDS011;17871;31.584;74.450;2023-03-30T07:47:03;16.77;;;8.00;;
31238;SDS011;17871;31.584;74.450;2023-03-30T07:49:35;16.92;;;6.80;;
31238;SDS011;17871;31.584;74.450;2023-03-30T07:52:04;18.85;;;7.70;;
31238;SDS011;17871;31.584;74.450;2023-03-30T07:54:55;12.35;;;7.45;;
31238;SDS011;17871;31.584;74.450;2023-03-30T07:57:46;20.45;;;7.30;;
31238;SDS011;17871;31.584;74.450;2023-03-30T08:00:15;19.27;;;8.93;;
31238;SDS011;17871;31.584;74.450;2023-03-30T08:03:17;10.40;;;7.03;;
31238;SDS011;17871;31.584;74.450;2023-03-30T08:05:53;23.17;;;8.05;;
31238;SDS011;17871;31.584;74.450;2023-03-30T08:08:27;11.52;;;7.75;;
31238;SDS011;17871;31.584;74.450;2023-03-30T08:11:01;21.10;;;7.35;;
31238;SDS011;17871;31.584;74.450;2023-03-30T08:13:30;17.77;;;9.07;;
31238;SDS011;17871;31.584;74.450;2023-03-30T08:15:59;28.27;;;8.00;;
31238;SDS011;17871;31.584;74.450;2023-03-30T08:18:29;32.05;;;8.60;;
31238;SDS011;17871;31.584;74.450;2023-03-30T08:20:58;25.27;;;9.57;;
31238;SDS011;17871;31.584;74.450;2023-03-30T08:23:27;25.20;;;10.25;;
31238;SDS011;17871;31.584;74.450;2023-03-30T08:25:57;43.20;;;10.02;;
31238;SDS011;17871;31.584;74.450;2023-03-30T08:28:29;23.63;;;10.13;;
31238;SDS011;17871;31.584;74.450;2023-03-30T08:31:02;26.35;;;9.95;;
31238;SDS011;17871;31.584;74.450;2023-03-30T08:33:33;18.92;;;9.55;;
31238;SDS011;17871;31.584;74.450;2023-03-30T08:36:02;22.35;;;8.45;;
31238;SDS011;17871;31.584;74.450;2023-03-30T08:38:32;21.95;;;8.20;;
31238;SDS011;17871;31.584;74.450;2023-03-30T08:41:09;28.90;;;9.93;;
31238;SDS011;17871;31.584;74.450;2023-03-30T08:46:25;28.98;;;9.05;;
31238;SDS011;17871;31.584;74.450;2023-03-30T08:48:57;23.83;;;9.27;;
31238;SDS011;17871;31.584;74.450;2023-03-30T08:51:33;15.75;;;8.43;;
31238;SDS011;17871;31.584;74.450;2023-03-30T08:54:05;24.63;;;9.60;;
31238;SDS011;17871;31.584;74.450;2023-03-30T08:56:51;23.38;;;9.00;;
31238;SDS011;17871;31.584;74.450;2023-03-30T08:59:44;24.90;;;9.52;;
31238;SDS011;17871;31.584;74.450;2023-03-30T09:02:36;24.00;;;9.48;;
31238;SDS011;17871;31.584;74.450;2023-03-30T09:10:23;24.80;;;9.27;;
31238;SDS011;17871;31.584;74.450;2023-03-30T09:12:56;22.13;;;8.82;;
31238;SDS011;17871;31.584;74.450;2023-03-30T09:15:32;19.48;;;10.27;;
31238;SDS011;17871;31.584;74.450;2023-03-30T09:18:17;21.88;;;10.20;;
31238;SDS011;17871;31.584;74.450;2023-03-30T09:21:02;25.00;;;10.23;;
31238;SDS011;17871;31.584;74.450;2023-03-30T09:23:33;26.25;;;9.15;;
31238;SDS011;17871;31.584;74.450;2023-03-30T09:31:19;16.88;;;9.65;;
31238;SDS011;17871;31.584;74.450;2023-03-30T09:34:21;18.85;;;9.10;;
31238;SDS011;17871;31.584;74.450;2023-03-30T09:39:39;14.73;;;8.00;;
31238;SDS011;17871;31.584;74.450;2023-03-30T09:45:00;35.10;;;8.88;;
31238;SDS011;17871;31.584;74.450;2023-03-30T09:47:49;15.82;;;8.50;;
31238;SDS011;17871;31.584;74.450;2023-03-30T09:50:24;22.77;;;8.73;;
31238;SDS011;17871;31.584;74.450;2023-03-30T09:53:00;21.45;;;8.40;;
31238;SDS011;17871;31.584;74.450;2023-03-30T09:55:31;21.08;;;8.00;;
31238;SDS011;17871;31.584;74.450;2023-03-30T09:58:25;20.00;;;7.28;;
31238;SDS011;17871;31.584;74.450;2023-03-30T10:03:34;12.35;;;7.07;;
31238;SDS011;17871;31.584;74.450;2023-03-30T10:11:18;64.82;;;9.15;;
31238;SDS011;17871;31.584;74.450;2023-03-30T10:13:49;16.20;;;7.20;;
31238;SDS011;17871;31.584;74.450;2023-03-30T10:16:28;24.85;;;8.15;;
31238;SDS011;17871;31.584;74.450;2023-03-30T10:19:03;18.70;;;7.97;;
31238;SDS011;17871;31.584;74.450;2023-03-30T10:21:43;26.30;;;7.90;;
31238;SDS011;17871;31.584;74.450;2023-03-30T10:26:46;14.35;;;7.97;;
31238;SDS011;17871;31.584;74.450;2023-03-30T10:29:24;12.32;;;6.97;;
31238;SDS011;17871;31.584;74.450;2023-03-30T10:31:59;18.75;;;8.18;;
31238;SDS011;17871;31.584;74.450;2023-03-30T10:34:33;19.08;;;7.10;;
31238;SDS011;17871;31.584;74.450;2023-03-30T10:37:04;17.95;;;7.38;;
31238;SDS011;17871;31.584;74.450;2023-03-30T10:39:45;21.35;;;7.30;;
31238;SDS011;17871;31.584;74.450;2023-03-30T10:42:16;26.02;;;8.07;;
31238;SDS011;17871;31.584;74.450;2023-03-30T10:44:52;25.08;;;7.97;;
31238;SDS011;17871;31.584;74.450;2023-03-30T10:50:22;17.52;;;8.77;;
31238;SDS011;17871;31.584;74.450;2023-03-30T10:56:22;24.63;;;7.60;;
31238;SDS011;17871;31.584;74.450;2023-03-30T11:01:41;17.25;;;8.98;;
31238;SDS011;17871;31.584;74.450;2023-03-30T11:04:27;22.52;;;8.50;;
31238;SDS011;17871;31.584;74.450;2023-03-30T11:07:04;17.67;;;9.30;;
31238;SDS011;17871;31.584;74.450;2023-03-30T11:09:46;22.70;;;8.02;;
31238;SDS011;17871;31.584;74.450;2023-03-30T11:12:21;20.35;;;8.80;;
31238;SDS011;17871;31.584;74.450;2023-03-30T11:14:58;17.42;;;7.10;;
31238;SDS011;17871;31.584;74.450;2023-03-30T11:17:39;17.27;;;8.55;;
31238;SDS011;17871;31.584;74.450;2023-03-30T11:20:18;21.73;;;7.35;;
31238;SDS011;17871;31.584;74.450;2023-03-30T11:23:17;22.10;;;8.30;;
31238;SDS011;17871;31.584;74.450;2023-03-30T11:26:06;22.73;;;8.00;;
31238;SDS011;17871;31.584;74.450;2023-03-30T11:36:56;18.38;;;7.57;;
31238;SDS011;17871;31.584;74.450;2023-03-30T11:39:33;23.05;;;11.15;;
31238;SDS011;17871;31.584;74.450;2023-03-30T11:42:25;25.95;;;8.10;;
31238;SDS011;17871;31.584;74.450;2023-03-30T11:44:57;19.65;;;8.13;;
31238;SDS011;17871;31.584;74.450;2023-03-30T11:53:25;16.20;;;8.73;;
31238;SDS011;17871;31.584;74.450;2023-03-30T11:56:09;34.83;;;7.67;;
31238;SDS011;17871;31.584;74.450;2023-03-30T12:02:27;17.27;;;7.68;;
31238;SDS011;17871;31.584;74.450;2023-03-30T12:05:15;19.88;;;8.70;;
31238;SDS011;17871;31.584;74.450;2023-03-30T12:10:32;18.13;;;8.50;;
31238;SDS011;17871;31.584;74.450;2023-03-30T12:13:14;22.83;;;7.60;;
31238;SDS011;17871;31.584;74.450;2023-03-30T12:15:59;26.65;;;9.07;;
31238;SDS011;17871;31.584;74.450;2023-03-30T12:18:37;17.95;;;7.38;;
31238;SDS011;17871;31.584;74.450;2023-03-30T12:26:30;14.20;;;8.25;;
31238;SDS011;17871;31.584;74.450;2023-03-30T12:29:14;17.25;;;7.65;;
31238;SDS011;17871;31.584;74.450;2023-03-30T12:34:36;17.65;;;8.82;;
31238;SDS011;17871;31.584;74.450;2023-03-30T12:42:58;17.98;;;8.52;;
31238;SDS011;17871;31.584;74.450;2023-03-30T12:45:36;21.33;;;8.23;;
31238;SDS011;17871;31.584;74.450;2023-03-30T12:48:51;18.00;;;7.47;;
31238;SDS011;17871;31.584;74.450;2023-03-30T12:55:04;13.18;;;6.85;;
31238;SDS011;17871;31.584;74.450;2023-03-30T13:03:37;25.52;;;9.50;;
31238;SDS011;17871;31.584;74.450;2023-03-30T13:06:31;22.15;;;8.55;;
31238;SDS011;17871;31.584;74.450;2023-03-30T13:20:36;26.80;;;9.70;;
31238;SDS011;17871;31.584;74.450;2023-03-30T13:23:25;26.17;;;9.20;;
31238;SDS011;17871;31.584;74.450;2023-03-30T13:29:07;23.10;;;10.50;;
31238;SDS011;17871;31.584;74.450;2023-03-30T13:31:53;41.50;;;12.90;;
31238;SDS011;17871;31.584;74.450;2023-03-30T13:52:27;23.93;;;11.17;;
31238;SDS011;17871;31.584;74.450;2023-03-30T13:55:08;24.85;;;10.02;;
31238;SDS011;17871;31.584;74.450;2023-03-30T13:57:56;22.60;;;10.57;;
31238;SDS011;17871;31.584;74.450;2023-03-30T14:00:33;46.92;;;13.77;;
31238;SDS011;17871;31.584;74.450;2023-03-30T14:06:14;31.75;;;9.90;;
31238;SDS011;17871;31.584;74.450;2023-03-30T14:08:46;18.65;;;9.05;;
31238;SDS011;17871;31.584;74.450;2023-03-30T14:11:31;27.13;;;9.20;;
31238;SDS011;17871;31.584;74.450;2023-03-30T14:14:03;18.70;;;8.15;;
31238;SDS011;17871;31.584;74.450;2023-03-30T14:16:35;25.77;;;9.05;;
31238;SDS011;17871;31.584;74.450;2023-03-30T14:19:19;45.55;;;11.27;;
31238;SDS011;17871;31.584;74.450;2023-03-30T14:21:50;71.57;;;12.57;;
31238;SDS011;17871;31.584;74.450;2023-03-30T14:24:29;93.85;;;14.45;;
31238;SDS011;17871;31.584;74.450;2023-03-30T14:27:00;54.45;;;9.98;;
31238;SDS011;17871;31.584;74.450;2023-03-30T14:29:29;44.78;;;12.48;;
31238;SDS011;17871;31.584;74.450;2023-03-30T14:32:00;26.13;;;10.15;;
31238;SDS011;17871;31.584;74.450;2023-03-30T14:34:32;32.15;;;9.25;;
31238;SDS011;17871;31.584;74.450;2023-03-30T14:37:03;18.98;;;5.97;;
31238;SDS011;17871;31.584;74.450;2023-03-30T14:39:38;17.48;;;6.40;;
31238;SDS011;17871;31.584;74.450;2023-03-30T14:42:17;15.32;;;6.78;;
31238;SDS011;17871;31.584;74.450;2023-03-30T14:44:49;15.55;;;6.57;;
31238;SDS011;17871;31.584;74.450;2023-03-30T14:47:24;15.25;;;7.25;;
31238;SDS011;17871;31.584;74.450;2023-03-30T14:49:56;22.20;;;7.10;;
31238;SDS011;17871;31.584;74.450;2023-03-30T14:52:36;22.95;;;7.35;;
31238;SDS011;17871;31.584;74.450;2023-03-30T14:55:10;17.20;;;7.43;;
31238;SDS011;17871;31.584;74.450;2023-03-30T14:57:51;20.95;;;8.07;;
31238;SDS011;17871;31.584;74.450;2023-03-30T15:00:22;23.23;;;7.35;;
31238;SDS011;17871;31.584;74.450;2023-03-30T15:02:53;11.00;;;8.15;;
31238;SDS011;17871;31.584;74.450;2023-03-30T15:05:29;17.30;;;8.13;;
31238;SDS011;17871;31.584;74.450;2023-03-30T15:08:03;20.08;;;7.97;;
31238;SDS011;17871;31.584;74.450;2023-03-30T15:10:52;15.25;;;7.57;;
31238;SDS011;17871;31.584;74.450;2023-03-30T15:14:11;15.02;;;7.68;;
31238;SDS011;17871;31.584;74.450;2023-03-30T15:16:26;14.43;;;8.32;;
31238;SDS011;17871;31.584;74.450;2023-03-30T15:19:24;26.65;;;8.00;;
31238;SDS011;17871;31.584;74.450;2023-03-30T15:22:00;18.40;;;7.63;;
31238;SDS011;17871;31.584;74.450;2023-03-30T15:24:33;17.70;;;8.20;;
31238;SDS011;17871;31.584;74.450;2023-03-30T15:27:06;21.85;;;7.45;;
31238;SDS011;17871;31.584;74.450;2023-03-30T15:29:39;18.05;;;7.32;;
31238;SDS011;17871;31.584;74.450;2023-03-30T15:32:18;18.88;;;6.75;;
31238;SDS011;17871;31.584;74.450;2023-03-30T15:37:29;11.57;;;7.57;;
31238;SDS011;17871;31.584;74.450;2023-03-30T15:39:59;15.50;;;8.02;;
31238;SDS011;17871;31.584;74.450;2023-03-30T15:42:31;18.83;;;7.40;;
31238;SDS011;17871;31.584;74.450;2023-03-30T15:45:01;25.88;;;8.82;;
31238;SDS011;17871;31.584;74.450;2023-03-30T15:47:36;17.15;;;8.52;;
31238;SDS011;17871;31.584;74.450;2023-03-30T15:50:10;19.52;;;8.43;;
31238;SDS011;17871;31.584;74.450;2023-03-30T15:52:41;23.50;;;7.35;;
31238;SDS011;17871;31.584;74.450;2023-03-30T15:55:20;12.35;;;7.97;;
31238;SDS011;17871;31.584;74.450;2023-03-30T15:57:53;14.35;;;8.38;;
31238;SDS011;17871;31.584;74.450;2023-03-30T16:00:23;15.88;;;7.10;;
31238;SDS011;17871;31.584;74.450;2023-03-30T16:02:56;20.15;;;8.45;;
31238;SDS011;17871;31.584;74.450;2023-03-30T16:05:28;13.95;;;7.30;;
31238;SDS011;17871;31.584;74.450;2023-03-30T16:08:03;14.32;;;8.20;;
31238;SDS011;17871;31.584;74.450;2023-03-30T16:10:32;10.68;;;8.02;;
31238;SDS011;17871;31.584;74.450;2023-03-30T16:13:04;51.83;;;11.70;;
31238;SDS011;17871;31.584;74.450;2023-03-30T16:15:33;30.33;;;10.38;;
31238;SDS011;17871;31.584;74.450;2023-03-30T16:18:03;26.35;;;9.23;;
31238;SDS011;17871;31.584;74.450;2023-03-30T16:20:32;20.40;;;10.65;;
31238;SDS011;17871;31.584;74.450;2023-03-30T16:23:01;29.00;;;10.82;;
31238;SDS011;17871;31.584;74.450;2023-03-30T16:25:31;19.05;;;9.52;;
31238;SDS011;17871;31.584;74.450;2023-03-30T16:28:14;18.38;;;9.45;;
31238;SDS011;17871;31.584;74.450;2023-03-30T16:30:45;19.30;;;9.05;;
31238;SDS011;17871;31.584;74.450;2023-03-30T16:33:16;14.73;;;8.63;;
31238;SDS011;17871;31.584;74.450;2023-03-30T16:35:45;14.35;;;9.60;;
31238;SDS011;17871;31.584;74.450;2023-03-30T16:38:14;14.35;;;8.55;;
31238;SDS011;17871;31.584;74.450;2023-03-30T16:40:46;19.13;;;8.93;;
31238;SDS011;17871;31.584;74.450;2023-03-30T16:43:20;22.35;;;10.25;;
31238;SDS011;17871;31.584;74.450;2023-03-30T16:45:50;20.25;;;10.93;;
31238;SDS011;17871;31.584;74.450;2023-03-30T16:48:19;17.85;;;9.77;;
31238;SDS011;17871;31.584;74.450;2023-03-30T16:50:52;19.92;;;11.23;;
31238;SDS011;17871;31.584;74.450;2023-03-30T16:53:23;19.10;;;10.25;;
31238;SDS011;17871;31.584;74.450;2023-03-30T16:55:52;25.40;;;11.80;;
31238;SDS011;17871;31.584;74.450;2023-03-30T16:58:21;19.88;;;10.45;;
31238;SDS011;17871;31.584;74.450;2023-03-30T17:00:52;20.80;;;11.52;;
31238;SDS011;17871;31.584;74.450;2023-03-30T17:03:23;22.30;;;10.85;;
31238;SDS011;17871;31.584;74.450;2023-03-30T17:05:52;15.77;;;10.75;;
31238;SDS011;17871;31.584;74.450;2023-03-30T17:08:22;16.35;;;10.20;;
31238;SDS011;17871;31.584;74.450;2023-03-30T17:10:53;21.17;;;11.38;;
31238;SDS011;17871;31.584;74.450;2023-03-30T17:13:26;18.52;;;10.68;;
31238;SDS011;17871;31.584;74.450;2023-03-30T17:15:55;15.40;;;10.88;;
31238;SDS011;17871;31.584;74.450;2023-03-30T17:18:29;20.65;;;10.73;;
31238;SDS011;17871;31.584;74.450;2023-03-30T17:20:59;14.70;;;11.40;;
31238;SDS011;17871;31.584;74.450;2023-03-30T17:23:29;14.48;;;9.88;;
31238;SDS011;17871;31.584;74.450;2023-03-30T17:26:00;20.85;;;13.07;;
31238;SDS011;17871;31.584;74.450;2023-03-30T17:28:30;23.67;;;12.20;;
31238;SDS011;17871;31.584;74.450;2023-03-30T17:31:01;25.10;;;12.27;;
31238;SDS011;17871;31.584;74.450;2023-03-30T17:33:36;26.33;;;12.73;;
31238;SDS011;17871;31.584;74.450;2023-03-30T17:36:11;19.55;;;12.75;;
31238;SDS011;17871;31.584;74.450;2023-03-30T17:38:45;19.63;;;12.98;;
31238;SDS011;17871;31.584;74.450;2023-03-30T17:41:15;17.67;;;12.13;;
31238;SDS011;17871;31.584;74.450;2023-03-30T17:43:46;29.20;;;12.70;;
31238;SDS011;17871;31.584;74.450;2023-03-30T17:46:16;19.42;;;11.95;;